sensor_id;sensor_type;location;lat;lon;timestamp;pressure;altitude;pressure_sealevel;temperature;humidity
28456;BME280;15682;56.742;38.866;2023-04-28T00:00:09;99120.0;;;11.3;83.4
28456;BME280;15682;56.742;38.866;2023-04-28T00:02:08;99120.0;;;11.3;82.8
28456;BME280;15682;56.742;38.866;2023-04-28T00:04:09;99120.0;;;11.3;82.8
28456;BME280;15682;56.742;38.866;2023-04-28T00:06:09;99120.0;;;11.2;83.6
28456;BME280;15682;56.742;38.866;2023-04-28T00:08:09;99110.0;;;11.2;83.8
28456;BME280;15682;56.742;38.866;2023-04-28T00:10:10;99110.0;;;11.2;83.8
28456;BME280;15682;56.742;38.866;2023-04-28T00:12:09;99100.0;;;11.2;82.6
28456;BME280;15682;56.742;38.866;2023-04-28T00:14:10;99100.0;;;11.2;82.6
28456;BME280;15682;56.742;38.866;2023-04-28T00:16:10;99100.0;;;11.3;83.4
28456;BME280;15682;56.742;38.866;2023-04-28T00:18:10;99100.0;;;11.3;82.8
28456;BME280;15682;56.742;38.866;2023-04-28T00:20:11;99100.0;;;11.0;83.5
28456;BME280;15682;56.742;38.866;2023-04-28T00:22:10;99100.0;;;11.0;83.5
28456;BME280;15682;56.742;38.866;2023-04-28T00:24:11;99100.0;;;11.0;84.4
28456;BME280;15682;56.742;38.866;2023-04-28T00:26:11;99100.0;;;10.9;84.9
28456;BME280;15682;56.742;38.866;2023-04-28T00:28:11;99100.0;;;10.9;84.1
28456;BME280;15682;56.742;38.866;2023-04-28T00:30:11;99100.0;;;10.8;84.8
28456;BME280;15682;56.742;38.866;2023-04-28T00:32:11;99100.0;;;10.8;84.8
28456;BME280;15682;56.742;38.866;2023-04-28T00:34:11;99100.0;;;10.8;84.7
28456;BME280;15682;56.742;38.866;2023-04-28T00:36:12;99100.0;;;10.9;84.1
28456;BME280;15682;56.742;38.866;2023-04-28T00:38:12;99100.0;;;10.9;83.4
28456;BME280;15682;56.742;38.866;2023-04-28T00:40:12;99100.0;;;11.1;83.4
28456;BME280;15682;56.742;38.866;2023-04-28T00:42:12;99100.0;;;11.1;84.2
28456;BME280;15682;56.742;38.866;2023-04-28T00:44:12;99100.0;;;11.1;84.9
28456;BME280;15682;56.742;38.866;2023-04-28T00:46:19;99100.0;;;11.1;83.3
28456;BME280;15682;56.742;38.866;2023-04-28T00:48:13;99100.0;;;10.9;83.7
28456;BME280;15682;56.742;38.866;2023-04-28T00:50:13;99100.0;;;10.8;83.7
28456;BME280;15682;56.742;38.866;2023-04-28T00:52:13;99100.0;;;10.8;84.2
28456;BME280;15682;56.742;38.866;2023-04-28T00:54:13;99100.0;;;10.8;84.2
28456;BME280;15682;56.742;38.866;2023-04-28T00:56:13;99100.0;;;10.9;84.0
28456;BME280;15682;56.742;38.866;2023-04-28T00:58:14;99100.0;;;10.9;84.4
28456;BME280;15682;56.742;38.866;2023-04-28T01:00:14;99100.0;;;10.8;84.1
28456;BME280;15682;56.742;38.866;2023-04-28T01:02:14;99100.0;;;10.8;83.9
28456;BME280;15682;56.742;38.866;2023-04-28T01:04:15;99100.0;;;10.8;84.9
28456;BME280;15682;56.742;38.866;2023-04-28T01:06:15;99100.0;;;10.8;84.1
28456;BME280;15682;56.742;38.866;2023-04-28T01:08:15;99100.0;;;10.8;84.4
28456;BME280;15682;56.742;38.866;2023-04-28T01:10:14;99100.0;;;10.7;85.1
28456;BME280;15682;56.742;38.866;2023-04-28T01:12:15;99100.0;;;10.6;85.1
28456;BME280;15682;56.742;38.866;2023-04-28T01:14:15;99100.0;;;10.6;84.8
28456;BME280;15682;56.742;38.866;2023-04-28T01:16:15;99100.0;;;10.4;86.0
28456;BME280;15682;56.742;38.866;2023-04-28T01:18:15;99100.0;;;10.3;86.0
28456;BME280;15682;56.742;38.866;2023-04-28T01:20:15;99090.0;;;10.2;86.9
28456;BME280;15682;56.742;38.866;2023-04-28T01:22:16;99090.0;;;10.3;86.3
28456;BME280;15682;56.742;38.866;2023-04-28T01:24:16;99090.0;;;10.3;85.5
28456;BME280;15682;56.742;38.866;2023-04-28T01:26:16;99090.0;;;10.2;86.8
28456;BME280;15682;56.742;38.866;2023-04-28T01:28:16;99090.0;;;10.0;86.8
28456;BME280;15682;56.742;38.866;2023-04-28T01:30:16;99090.0;;;10.0;87.0
28456;BME280;15682;56.742;38.866;2023-04-28T01:32:16;99090.0;;;10.0;88.2
28456;BME280;15682;56.742;38.866;2023-04-28T01:34:16;99090.0;;;10.0;87.0
28456;BME280;15682;56.742;38.866;2023-04-28T01:36:17;99090.0;;;10.0;87.0
28456;BME280;15682;56.742;38.866;2023-04-28T01:38:17;99090.0;;;9.9;87.7
28456;BME280;15682;56.742;38.866;2023-04-28T01:40:17;99090.0;;;9.9;87.8
28456;BME280;15682;56.742;38.866;2023-04-28T01:42:17;99090.0;;;9.8;88.7
28456;BME280;15682;56.742;38.866;2023-04-28T01:44:17;99100.0;;;9.8;88.7
28456;BME280;15682;56.742;38.866;2023-04-28T01:46:17;99100.0;;;10.0;87.2
28456;BME280;15682;56.742;38.866;2023-04-28T01:48:18;99090.0;;;10.0;87.8
28456;BME280;15682;56.742;38.866;2023-04-28T01:50:18;99090.0;;;9.8;87.8
28456;BME280;15682;56.742;38.866;2023-04-28T01:52:18;99090.0;;;9.8;87.8
28456;BME280;15682;56.742;38.866;2023-04-28T01:54:18;99090.0;;;9.9;87.1
28456;BME280;15682;56.742;38.866;2023-04-28T01:56:18;99090.0;;;10.0;87.0
28456;BME280;15682;56.742;38.866;2023-04-28T01:58:19;99090.0;;;10.0;88.2
28456;BME280;15682;56.742;38.866;2023-04-28T02:00:19;99090.0;;;10.0;87.2
28456;BME280;15682;56.742;38.866;2023-04-28T02:02:19;99090.0;;;10.1;86.9
28456;BME280;15682;56.742;38.866;2023-04-28T02:04:19;99090.0;;;10.1;87.5
28456;BME280;15682;56.742;38.866;2023-04-28T02:06:19;99090.0;;;9.9;86.7
28456;BME280;15682;56.742;38.866;2023-04-28T02:08:19;99090.0;;;9.9;86.7
28456;BME280;15682;56.742;38.866;2023-04-28T02:10:19;99090.0;;;9.9;88.2
28456;BME280;15682;56.742;38.866;2023-04-28T02:12:20;99090.0;;;9.7;88.6
28456;BME280;15682;56.742;38.866;2023-04-28T02:14:20;99090.0;;;9.7;87.2
28456;BME280;15682;56.742;38.866;2023-04-28T02:16:20;99090.0;;;9.6;89.1
28456;BME280;15682;56.742;38.866;2023-04-28T02:18:20;99090.0;;;9.8;87.8
28456;BME280;15682;56.742;38.866;2023-04-28T02:20:20;99090.0;;;9.6;89.1
28456;BME280;15682;56.742;38.866;2023-04-28T02:22:20;99090.0;;;9.8;87.0
28456;BME280;15682;56.742;38.866;2023-04-28T02:24:20;99090.0;;;10.0;86.2
28456;BME280;15682;56.742;38.866;2023-04-28T02:26:21;99090.0;;;10.0;86.5
28456;BME280;15682;56.742;38.866;2023-04-28T02:28:21;99090.0;;;9.9;86.5
28456;BME280;15682;56.742;38.866;2023-04-28T02:30:21;99090.0;;;9.9;86.5
28456;BME280;15682;56.742;38.866;2023-04-28T02:32:21;99090.0;;;9.9;87.0
28456;BME280;15682;56.742;38.866;2023-04-28T02:34:21;99090.0;;;9.9;87.0
28456;BME280;15682;56.742;38.866;2023-04-28T02:36:21;99090.0;;;9.9;86.8
28456;BME280;15682;56.742;38.866;2023-04-28T02:38:22;99090.0;;;9.9;87.0
28456;BME280;15682;56.742;38.866;2023-04-28T02:40:22;99090.0;;;9.9;86.5
28456;BME280;15682;56.742;38.866;2023-04-28T02:42:22;99090.0;;;9.9;86.5
28456;BME280;15682;56.742;38.866;2023-04-28T02:44:22;99090.0;;;9.9;87.1
28456;BME280;15682;56.742;38.866;2023-04-28T02:46:22;99100.0;;;10.1;87.0
28456;BME280;15682;56.742;38.866;2023-04-28T02:48:23;99100.0;;;10.2;86.3
28456;BME280;15682;56.742;38.866;2023-04-28T02:50:23;99100.0;;;10.2;86.3
28456;BME280;15682;56.742;38.866;2023-04-28T02:52:23;99100.0;;;10.2;86.3
28456;BME280;15682;56.742;38.866;2023-04-28T02:54:23;99100.0;;;10.5;85.8
28456;BME280;15682;56.742;38.866;2023-04-28T02:56:23;99100.0;;;10.6;85.4
28456;BME280;15682;56.742;38.866;2023-04-28T02:58:23;99100.0;;;10.6;85.8
28456;BME280;15682;56.742;38.866;2023-04-28T03:00:23;99100.0;;;10.8;85.8
28456;BME280;15682;56.742;38.866;2023-04-28T03:02:24;99100.0;;;11.1;84.5
28456;BME280;15682;56.742;38.866;2023-04-28T03:04:24;99100.0;;;11.1;83.8
28456;BME280;15682;56.742;38.866;2023-04-28T03:06:24;99100.0;;;11.3;80.8
28456;BME280;15682;56.742;38.866;2023-04-28T03:08:24;99100.0;;;11.5;82.4
28456;BME280;15682;56.742;38.866;2023-04-28T03:10:24;99100.0;;;11.6;79.3
28456;BME280;15682;56.742;38.866;2023-04-28T03:12:25;99100.0;;;11.8;81.9
28456;BME280;15682;56.742;38.866;2023-04-28T03:14:25;99100.0;;;11.7;79.2
28456;BME280;15682;56.742;38.866;2023-04-28T03:16:25;99100.0;;;11.7;79.2
28456;BME280;15682;56.742;38.866;2023-04-28T03:18:25;99100.0;;;11.8;79.1
28456;BME280;15682;56.742;38.866;2023-04-28T03:20:26;99100.0;;;12.0;79.8
28456;BME280;15682;56.742;38.866;2023-04-28T03:22:26;99100.0;;;12.1;77.5
28456;BME280;15682;56.742;38.866;2023-04-28T03:24:26;99100.0;;;12.1;76.9
28456;BME280;15682;56.742;38.866;2023-04-28T03:26:27;99100.0;;;12.4;77.7
28456;BME280;15682;56.742;38.866;2023-04-28T03:28:27;99100.0;;;12.5;76.2
28456;BME280;15682;56.742;38.866;2023-04-28T03:30:27;99100.0;;;12.6;74.9
28456;BME280;15682;56.742;38.866;2023-04-28T03:32:27;99100.0;;;12.6;74.3
28456;BME280;15682;56.742;38.866;2023-04-28T03:34:28;99100.0;;;12.6;74.9
28456;BME280;15682;56.742;38.866;2023-04-28T03:36:28;99100.0;;;12.6;75.7
28456;BME280;15682;56.742;38.866;2023-04-28T03:38:29;99110.0;;;13.0;74.6
28456;BME280;15682;56.742;38.866;2023-04-28T03:40:29;99110.0;;;13.0;73.6
28456;BME280;15682;56.742;38.866;2023-04-28T03:42:29;99110.0;;;13.0;73.6
28456;BME280;15682;56.742;38.866;2023-04-28T03:44:47;99110.0;;;13.1;74.2
28456;BME280;15682;56.742;38.866;2023-04-28T03:46:30;99110.0;;;13.0;74.8
28456;BME280;15682;56.742;38.866;2023-04-28T03:48:30;99110.0;;;13.1;74.0
28456;BME280;15682;56.742;38.866;2023-04-28T03:50:30;99100.0;;;13.1;74.4
28456;BME280;15682;56.742;38.866;2023-04-28T03:52:31;99100.0;;;13.1;74.3
28456;BME280;15682;56.742;38.866;2023-04-28T03:54:31;99100.0;;;13.1;74.2
28456;BME280;15682;56.742;38.866;2023-04-28T03:56:32;99100.0;;;13.1;74.3
28456;BME280;15682;56.742;38.866;2023-04-28T03:58:32;99100.0;;;13.3;74.6
28456;BME280;15682;56.742;38.866;2023-04-28T04:00:32;99100.0;;;13.5;74.6
28456;BME280;15682;56.742;38.866;2023-04-28T04:02:33;99100.0;;;13.5;74.6
28456;BME280;15682;56.742;38.866;2023-04-28T04:04:33;99100.0;;;13.5;73.2
28456;BME280;15682;56.742;38.866;2023-04-28T04:06:33;99100.0;;;13.5;73.2
28456;BME280;15682;56.742;38.866;2023-04-28T04:08:34;99100.0;;;13.4;74.0
28456;BME280;15682;56.742;38.866;2023-04-28T04:11:00;99100.0;;;13.6;73.2
28456;BME280;15682;56.742;38.866;2023-04-28T04:12:34;99100.0;;;13.8;74.2
28456;BME280;15682;56.742;38.866;2023-04-28T04:14:35;99100.0;;;13.9;73.2
28456;BME280;15682;56.742;38.866;2023-04-28T04:16:35;99100.0;;;13.9;72.2
28456;BME280;15682;56.742;38.866;2023-04-28T04:18:35;99100.0;;;14.1;73.3
28456;BME280;15682;56.742;38.866;2023-04-28T04:20:36;99100.0;;;14.1;73.1
28456;BME280;15682;56.742;38.866;2023-04-28T04:22:36;99100.0;;;14.0;70.8
28456;BME280;15682;56.742;38.866;2023-04-28T04:24:37;99100.0;;;14.0;71.9
28456;BME280;15682;56.742;38.866;2023-04-28T04:26:37;99100.0;;;14.0;72.8
28456;BME280;15682;56.742;38.866;2023-04-28T04:28:37;99100.0;;;14.1;72.2
28456;BME280;15682;56.742;38.866;2023-04-28T04:30:43;99110.0;;;14.3;70.6
28456;BME280;15682;56.742;38.866;2023-04-28T04:32:38;99110.0;;;14.2;71.4
28456;BME280;15682;56.742;38.866;2023-04-28T04:34:38;99110.0;;;14.0;72.6
28456;BME280;15682;56.742;38.866;2023-04-28T04:36:39;99110.0;;;14.6;70.6
28456;BME280;15682;56.742;38.866;2023-04-28T04:38:39;99110.0;;;14.7;70.6
28456;BME280;15682;56.742;38.866;2023-04-28T04:40:39;99110.0;;;14.7;70.0
28456;BME280;15682;56.742;38.866;2023-04-28T04:42:40;99110.0;;;14.6;70.0
28456;BME280;15682;56.742;38.866;2023-04-28T04:44:40;99110.0;;;14.6;70.7
28456;BME280;15682;56.742;38.866;2023-04-28T04:46:40;99110.0;;;14.6;70.5
28456;BME280;15682;56.742;38.866;2023-04-28T04:48:41;99110.0;;;14.8;70.3
28456;BME280;15682;56.742;38.866;2023-04-28T04:50:41;99110.0;;;15.0;69.4
28456;BME280;15682;56.742;38.866;2023-04-28T04:52:42;99110.0;;;15.0;69.4
28456;BME280;15682;56.742;38.866;2023-04-28T04:54:42;99110.0;;;15.3;70.5
28456;BME280;15682;56.742;38.866;2023-04-28T04:56:42;99110.0;;;15.3;67.9
28456;BME280;15682;56.742;38.866;2023-04-28T04:58:43;99110.0;;;15.4;67.9
28456;BME280;15682;56.742;38.866;2023-04-28T05:00:43;99110.0;;;15.5;68.2
28456;BME280;15682;56.742;38.866;2023-04-28T05:02:43;99110.0;;;15.6;66.8
28456;BME280;15682;56.742;38.866;2023-04-28T05:04:44;99110.0;;;15.6;67.5
28456;BME280;15682;56.742;38.866;2023-04-28T05:06:44;99110.0;;;15.6;67.5
28456;BME280;15682;56.742;38.866;2023-04-28T05:08:45;99110.0;;;15.8;67.5
28456;BME280;15682;56.742;38.866;2023-04-28T05:10:45;99110.0;;;15.8;66.7
28456;BME280;15682;56.742;38.866;2023-04-28T05:12:45;99110.0;;;15.8;67.3
28456;BME280;15682;56.742;38.866;2023-04-28T05:14:46;99110.0;;;15.8;67.9
28456;BME280;15682;56.742;38.866;2023-04-28T05:16:46;99110.0;;;15.9;66.8
28456;BME280;15682;56.742;38.866;2023-04-28T05:18:47;99110.0;;;15.8;66.8
28456;BME280;15682;56.742;38.866;2023-04-28T05:20:47;99110.0;;;16.2;66.8
28456;BME280;15682;56.742;38.866;2023-04-28T05:22:48;99110.0;;;16.3;67.7
28456;BME280;15682;56.742;38.866;2023-04-28T05:24:48;99110.0;;;16.3;67.1
28456;BME280;15682;56.742;38.866;2023-04-28T05:26:49;99110.0;;;16.1;67.1
28456;BME280;15682;56.742;38.866;2023-04-28T05:28:49;99120.0;;;16.0;66.7
28456;BME280;15682;56.742;38.866;2023-04-28T05:30:49;99120.0;;;16.4;65.6
28456;BME280;15682;56.742;38.866;2023-04-28T05:32:50;99120.0;;;16.5;64.3
28456;BME280;15682;56.742;38.866;2023-04-28T05:34:50;99120.0;;;16.5;65.9
28456;BME280;15682;56.742;38.866;2023-04-28T05:36:51;99120.0;;;16.4;65.7
28456;BME280;15682;56.742;38.866;2023-04-28T05:38:51;99120.0;;;16.6;65.6
28456;BME280;15682;56.742;38.866;2023-04-28T05:40:51;99120.0;;;16.6;65.6
28456;BME280;15682;56.742;38.866;2023-04-28T05:42:52;99120.0;;;16.8;64.2
28456;BME280;15682;56.742;38.866;2023-04-28T05:44:52;99110.0;;;16.8;63.8
28456;BME280;15682;56.742;38.866;2023-04-28T05:46:53;99110.0;;;16.9;65.0
28456;BME280;15682;56.742;38.866;2023-04-28T05:48:53;99110.0;;;16.9;65.7
28456;BME280;15682;56.742;38.866;2023-04-28T05:50:54;99110.0;;;17.0;64.9
28456;BME280;15682;56.742;38.866;2023-04-28T05:52:54;99110.0;;;17.0;65.0
28456;BME280;15682;56.742;38.866;2023-04-28T05:54:54;99110.0;;;17.3;64.3
28456;BME280;15682;56.742;38.866;2023-04-28T05:56:55;99110.0;;;17.5;63.7
28456;BME280;15682;56.742;38.866;2023-04-28T05:58:55;99110.0;;;17.3;63.7
28456;BME280;15682;56.742;38.866;2023-04-28T06:00:56;99110.0;;;17.2;63.7
28456;BME280;15682;56.742;38.866;2023-04-28T06:02:56;99110.0;;;17.2;64.9
28456;BME280;15682;56.742;38.866;2023-04-28T06:04:57;99110.0;;;17.2;65.3
28456;BME280;15682;56.742;38.866;2023-04-28T06:06:57;99110.0;;;17.3;64.6
28456;BME280;15682;56.742;38.866;2023-04-28T06:08:58;99110.0;;;17.2;64.0
28456;BME280;15682;56.742;38.866;2023-04-28T06:10:58;99110.0;;;17.2;64.0
28456;BME280;15682;56.742;38.866;2023-04-28T06:12:58;99110.0;;;17.3;64.8
28456;BME280;15682;56.742;38.866;2023-04-28T06:14:59;99110.0;;;17.5;65.2
28456;BME280;15682;56.742;38.866;2023-04-28T06:17:00;99110.0;;;17.5;64.8
28456;BME280;15682;56.742;38.866;2023-04-28T06:19:00;99110.0;;;17.8;63.7
28456;BME280;15682;56.742;38.866;2023-04-28T06:21:01;99110.0;;;17.9;63.0
28456;BME280;15682;56.742;38.866;2023-04-28T06:23:01;99110.0;;;17.8;63.4
28456;BME280;15682;56.742;38.866;2023-04-28T06:25:02;99100.0;;;17.9;63.1
28456;BME280;15682;56.742;38.866;2023-04-28T06:27:03;99100.0;;;18.2;62.4
28456;BME280;15682;56.742;38.866;2023-04-28T06:29:03;99100.0;;;18.3;61.1
28456;BME280;15682;56.742;38.866;2023-04-28T06:31:04;99100.0;;;18.3;61.2
28456;BME280;15682;56.742;38.866;2023-04-28T06:33:04;99100.0;;;18.4;62.1
28456;BME280;15682;56.742;38.866;2023-04-28T06:35:06;99100.0;;;18.4;60.1
28456;BME280;15682;56.742;38.866;2023-04-28T06:37:06;99100.0;;;18.6;60.8
28456;BME280;15682;56.742;38.866;2023-04-28T06:39:07;99100.0;;;18.9;60.2
28456;BME280;15682;56.742;38.866;2023-04-28T06:41:07;99100.0;;;18.9;59.2
28456;BME280;15682;56.742;38.866;2023-04-28T06:43:08;99100.0;;;19.0;60.0
28456;BME280;15682;56.742;38.866;2023-04-28T06:45:09;99100.0;;;19.1;58.1
28456;BME280;15682;56.742;38.866;2023-04-28T06:47:09;99100.0;;;19.1;56.6
28456;BME280;15682;56.742;38.866;2023-04-28T06:49:09;99100.0;;;19.0;56.6
28456;BME280;15682;56.742;38.866;2023-04-28T06:51:10;99100.0;;;19.0;56.6
28456;BME280;15682;56.742;38.866;2023-04-28T06:53:11;99100.0;;;19.4;54.0
28456;BME280;15682;56.742;38.866;2023-04-28T06:55:14;99100.0;;;19.4;54.6
28456;BME280;15682;56.742;38.866;2023-04-28T06:57:12;99110.0;;;19.4;55.2
28456;BME280;15682;56.742;38.866;2023-04-28T06:59:12;99110.0;;;19.6;54.0
28456;BME280;15682;56.742;38.866;2023-04-28T07:01:13;99110.0;;;19.6;53.5
28456;BME280;15682;56.742;38.866;2023-04-28T07:03:14;99110.0;;;19.9;54.5
28456;BME280;15682;56.742;38.866;2023-04-28T07:05:14;99110.0;;;19.7;54.0
28456;BME280;15682;56.742;38.866;2023-04-28T07:07:15;99110.0;;;19.7;54.0
28456;BME280;15682;56.742;38.866;2023-04-28T07:09:15;99110.0;;;19.9;51.5
28456;BME280;15682;56.742;38.866;2023-04-28T07:11:16;99110.0;;;20.2;54.1
28456;BME280;15682;56.742;38.866;2023-04-28T07:13:16;99110.0;;;20.4;52.2
28456;BME280;15682;56.742;38.866;2023-04-28T07:15:17;99110.0;;;20.4;52.8
28456;BME280;15682;56.742;38.866;2023-04-28T07:17:18;99110.0;;;20.2;52.9
28456;BME280;15682;56.742;38.866;2023-04-28T07:19:18;99110.0;;;20.4;52.1
28456;BME280;15682;56.742;38.866;2023-04-28T07:21:19;99110.0;;;20.6;52.1
28456;BME280;15682;56.742;38.866;2023-04-28T07:23:19;99110.0;;;20.9;52.9
28456;BME280;15682;56.742;38.866;2023-04-28T07:25:20;99110.0;;;20.4;54.7
28456;BME280;15682;56.742;38.866;2023-04-28T07:27:20;99110.0;;;20.1;56.0
28456;BME280;15682;56.742;38.866;2023-04-28T07:29:21;99110.0;;;19.9;56.5
28456;BME280;15682;56.742;38.866;2023-04-28T07:31:21;99110.0;;;20.0;55.9
28456;BME280;15682;56.742;38.866;2023-04-28T07:33:22;99110.0;;;20.0;55.9
28456;BME280;15682;56.742;38.866;2023-04-28T07:35:22;99110.0;;;20.0;56.6
28456;BME280;15682;56.742;38.866;2023-04-28T07:37:23;99110.0;;;19.8;56.6
28456;BME280;15682;56.742;38.866;2023-04-28T07:39:23;99110.0;;;19.8;56.6
28456;BME280;15682;56.742;38.866;2023-04-28T07:41:25;99110.0;;;19.8;57.2
28456;BME280;15682;56.742;38.866;2023-04-28T07:43:24;99110.0;;;19.6;57.8
28456;BME280;15682;56.742;38.866;2023-04-28T07:45:24;99110.0;;;19.5;57.8
28456;BME280;15682;56.742;38.866;2023-04-28T07:47:25;99110.0;;;19.8;57.8
28456;BME280;15682;56.742;38.866;2023-04-28T07:49:26;99110.0;;;19.5;57.8
28456;BME280;15682;56.742;38.866;2023-04-28T07:51:26;99110.0;;;19.6;58.3
28456;BME280;15682;56.742;38.866;2023-04-28T07:53:26;99110.0;;;19.8;57.8
28456;BME280;15682;56.742;38.866;2023-04-28T07:55:26;99110.0;;;19.9;57.8
28456;BME280;15682;56.742;38.866;2023-04-28T07:57:27;99110.0;;;19.9;56.3
28456;BME280;15682;56.742;38.866;2023-04-28T07:59:27;99110.0;;;19.9;56.3
28456;BME280;15682;56.742;38.866;2023-04-28T08:01:28;99110.0;;;20.0;56.3
28456;BME280;15682;56.742;38.866;2023-04-28T08:03:28;99110.0;;;20.1;56.3
28456;BME280;15682;56.742;38.866;2023-04-28T08:05:29;99110.0;;;20.0;56.3
28456;BME280;15682;56.742;38.866;2023-04-28T08:07:29;99110.0;;;20.2;55.8
28456;BME280;15682;56.742;38.866;2023-04-28T08:09:30;99110.0;;;20.7;55.0
28456;BME280;15682;56.742;38.866;2023-04-28T08:11:30;99110.0;;;20.8;54.5
28456;BME280;15682;56.742;38.866;2023-04-28T08:13:31;99110.0;;;20.7;54.5
28456;BME280;15682;56.742;38.866;2023-04-28T08:15:31;99100.0;;;20.7;54.5
28456;BME280;15682;56.742;38.866;2023-04-28T08:17:31;99100.0;;;21.0;54.3
28456;BME280;15682;56.742;38.866;2023-04-28T08:19:32;99100.0;;;20.9;54.3
28456;BME280;15682;56.742;38.866;2023-04-28T08:21:32;99110.0;;;20.9;54.3
28456;BME280;15682;56.742;38.866;2023-04-28T08:23:32;99110.0;;;21.2;53.5
28456;BME280;15682;56.742;38.866;2023-04-28T08:25:33;99110.0;;;21.6;52.5
28456;BME280;15682;56.742;38.866;2023-04-28T08:27:33;99100.0;;;21.5;53.4
28456;BME280;15682;56.742;38.866;2023-04-28T08:29:34;99100.0;;;22.0;53.4
28456;BME280;15682;56.742;38.866;2023-04-28T08:31:34;99100.0;;;21.7;52.6
28456;BME280;15682;56.742;38.866;2023-04-28T08:33:35;99100.0;;;21.8;52.6
28456;BME280;15682;56.742;38.866;2023-04-28T08:35:35;99100.0;;;21.8;54.1
28456;BME280;15682;56.742;38.866;2023-04-28T08:37:36;99100.0;;;21.3;53.5
28456;BME280;15682;56.742;38.866;2023-04-28T08:39:37;99100.0;;;21.0;54.6
28456;BME280;15682;56.742;38.866;2023-04-28T08:41:38;99100.0;;;20.9;55.5
28456;BME280;15682;56.742;38.866;2023-04-28T08:43:37;99100.0;;;20.7;55.5
28456;BME280;15682;56.742;38.866;2023-04-28T08:45:40;99100.0;;;20.8;55.6
28456;BME280;15682;56.742;38.866;2023-04-28T08:47:39;99100.0;;;20.8;55.7
28456;BME280;15682;56.742;38.866;2023-04-28T08:49:39;99100.0;;;20.9;55.7
28456;BME280;15682;56.742;38.866;2023-04-28T08:51:44;99100.0;;;20.9;55.2
28456;BME280;15682;56.742;38.866;2023-04-28T08:53:44;99100.0;;;20.6;55.2
28456;BME280;15682;56.742;38.866;2023-04-28T08:55:40;99100.0;;;20.7;55.2
28456;BME280;15682;56.742;38.866;2023-04-28T08:57:42;99090.0;;;20.5;55.9
28456;BME280;15682;56.742;38.866;2023-04-28T08:59:41;99090.0;;;20.6;55.1
28456;BME280;15682;56.742;38.866;2023-04-28T09:01:41;99090.0;;;20.6;55.1
28456;BME280;15682;56.742;38.866;2023-04-28T09:03:42;99080.0;;;20.6;55.1
28456;BME280;15682;56.742;38.866;2023-04-28T09:05:42;99080.0;;;20.3;55.9
28456;BME280;15682;56.742;38.866;2023-04-28T09:07:45;99080.0;;;20.1;57.2
28456;BME280;15682;56.742;38.866;2023-04-28T09:09:43;99080.0;;;20.4;56.6
28456;BME280;15682;56.742;38.866;2023-04-28T09:11:50;99090.0;;;20.3;56.6
28456;BME280;15682;56.742;38.866;2023-04-28T09:13:44;99090.0;;;20.2;56.6
28456;BME280;15682;56.742;38.866;2023-04-28T09:15:44;99090.0;;;20.3;56.6
28456;BME280;15682;56.742;38.866;2023-04-28T09:17:48;99090.0;;;20.4;56.7
28456;BME280;15682;56.742;38.866;2023-04-28T09:19:45;99090.0;;;20.4;56.7
28456;BME280;15682;56.742;38.866;2023-04-28T09:21:46;99090.0;;;20.3;57.6
28456;BME280;15682;56.742;38.866;2023-04-28T09:23:47;99080.0;;;20.3;59.4
28456;BME280;15682;56.742;38.866;2023-04-28T09:25:56;99080.0;;;20.2;58.8
28456;BME280;15682;56.742;38.866;2023-04-28T09:27:47;99080.0;;;20.2;58.6
28456;BME280;15682;56.742;38.866;2023-04-28T09:29:52;99080.0;;;20.4;59.9
28456;BME280;15682;56.742;38.866;2023-04-28T09:31:47;99080.0;;;21.1;57.5
28456;BME280;15682;56.742;38.866;2023-04-28T09:33:56;99080.0;;;21.3;57.0
28456;BME280;15682;56.742;38.866;2023-04-28T09:35:48;99080.0;;;20.9;57.8
28456;BME280;15682;56.742;38.866;2023-04-28T09:37:57;99080.0;;;20.8;57.7
28456;BME280;15682;56.742;38.866;2023-04-28T09:39:51;99080.0;;;20.5;57.0
28456;BME280;15682;56.742;38.866;2023-04-28T09:41:49;99080.0;;;20.4;57.0
28456;BME280;15682;56.742;38.866;2023-04-28T09:43:50;99080.0;;;20.1;57.0
28456;BME280;15682;56.742;38.866;2023-04-28T09:45:50;99080.0;;;19.8;57.0
28456;BME280;15682;56.742;38.866;2023-04-28T09:47:51;99080.0;;;19.8;56.7
28456;BME280;15682;56.742;38.866;2023-04-28T09:49:53;99080.0;;;20.1;56.7
28456;BME280;15682;56.742;38.866;2023-04-28T09:51:52;99080.0;;;20.0;56.1
28456;BME280;15682;56.742;38.866;2023-04-28T09:53:52;99080.0;;;19.9;56.6
28456;BME280;15682;56.742;38.866;2023-04-28T09:55:54;99080.0;;;20.0;56.6
28456;BME280;15682;56.742;38.866;2023-04-28T09:57:54;99090.0;;;20.0;56.5
28456;BME280;15682;56.742;38.866;2023-04-28T09:59:53;99090.0;;;20.2;56.1
28456;BME280;15682;56.742;38.866;2023-04-28T10:01:54;99090.0;;;20.1;56.1
28456;BME280;15682;56.742;38.866;2023-04-28T10:03:55;99090.0;;;20.1;56.1
28456;BME280;15682;56.742;38.866;2023-04-28T10:05:56;99090.0;;;20.2;56.6
28456;BME280;15682;56.742;38.866;2023-04-28T10:07:55;99090.0;;;20.2;56.5
28456;BME280;15682;56.742;38.866;2023-04-28T10:09:56;99090.0;;;20.2;56.5
28456;BME280;15682;56.742;38.866;2023-04-28T10:11:57;99090.0;;;20.3;57.4
28456;BME280;15682;56.742;38.866;2023-04-28T10:13:57;99090.0;;;20.2;57.4
28456;BME280;15682;56.742;38.866;2023-04-28T10:15:57;99090.0;;;20.2;57.4
28456;BME280;15682;56.742;38.866;2023-04-28T10:17:58;99090.0;;;20.2;57.3
28456;BME280;15682;56.742;38.866;2023-04-28T10:19:59;99090.0;;;20.4;57.3
28456;BME280;15682;56.742;38.866;2023-04-28T10:22:08;99090.0;;;20.4;56.9
28456;BME280;15682;56.742;38.866;2023-04-28T10:24:08;99090.0;;;20.4;56.9
28456;BME280;15682;56.742;38.866;2023-04-28T10:25:59;99090.0;;;20.3;56.9
28456;BME280;15682;56.742;38.866;2023-04-28T10:28:03;99080.0;;;20.8;55.7
28456;BME280;15682;56.742;38.866;2023-04-28T10:30:16;99080.0;;;21.0;55.2
28456;BME280;15682;56.742;38.866;2023-04-28T10:32:16;99080.0;;;20.9;55.9
28456;BME280;15682;56.742;38.866;2023-04-28T10:34:21;99080.0;;;20.5;56.7
28456;BME280;15682;56.742;38.866;2023-04-28T10:36:01;99080.0;;;20.5;56.7
28456;BME280;15682;56.742;38.866;2023-04-28T10:38:02;99080.0;;;20.2;56.3
28456;BME280;15682;56.742;38.866;2023-04-28T10:42:02;99080.0;;;20.3;57.4
28456;BME280;15682;56.742;38.866;2023-04-28T10:46:05;99070.0;;;19.9;57.4
28456;BME280;15682;56.742;38.866;2023-04-28T10:48:04;99070.0;;;19.6;57.9
28456;BME280;15682;56.742;38.866;2023-04-28T10:50:07;99080.0;;;19.4;58.6
28456;BME280;15682;56.742;38.866;2023-04-28T10:54:09;99080.0;;;20.0;59.3
28456;BME280;15682;56.742;38.866;2023-04-28T10:56:05;99080.0;;;20.1;58.0
28456;BME280;15682;56.742;38.866;2023-04-28T11:00:28;99070.0;;;20.3;58.1
28456;BME280;15682;56.742;38.866;2023-04-28T11:04:08;99070.0;;;19.7;58.1